createdAt,value
2019-01-03T00:00:57.953Z,1.97
2019-01-03T00:03:53.267Z,1.80
2019-01-03T00:06:40.930Z,2.27
2019-01-03T00:09:39.657Z,2.37
2019-01-03T00:12:40.761Z,1.90
2019-01-03T00:15:42.033Z,2.20
2019-01-03T00:18:43.506Z,1.80
2019-01-03T00:21:31.332Z,2.03
2019-01-03T00:24:18.287Z,1.97
2019-01-03T00:27:11.996Z,1.93
2019-01-03T00:30:04.495Z,1.90
2019-01-03T00:32:54.002Z,1.97
2019-01-03T00:35:46.242Z,1.92
2019-01-03T00:38:38.156Z,2.37
2019-01-03T00:41:27.297Z,1.60
2019-01-03T00:44:31.618Z,1.43
2019-01-03T00:47:20.732Z,1.50
2019-01-03T00:50:10.466Z,1.57
2019-01-03T00:52:59.579Z,1.77
2019-01-03T00:55:47.569Z,2.20
2019-01-03T00:58:34.243Z,1.93
2019-01-03T01:01:36.594Z,2.00
2019-01-03T01:04:24.659Z,2.20
2019-01-03T01:07:19.718Z,1.70
2019-01-03T01:10:08.382Z,1.60
2019-01-03T01:12:56.346Z,1.70
2019-01-03T01:15:45.473Z,1.87
2019-01-03T01:18:36.698Z,1.77
2019-01-03T01:21:24.487Z,1.80
2019-01-03T01:24:12.488Z,1.83
2019-01-03T01:27:00.115Z,1.77
2019-01-03T01:29:49.340Z,2.10
2019-01-03T01:32:33.667Z,2.27
2019-01-03T01:35:23.213Z,2.35
2019-01-03T01:38:16.893Z,1.97
2019-01-03T01:40:58.235Z,1.90
2019-01-03T01:43:56.141Z,1.33
2019-01-03T01:46:48.284Z,1.80
2019-01-03T01:49:36.217Z,1.97
2019-01-03T01:52:25.721Z,1.27
2019-01-03T01:55:13.818Z,1.40
2019-01-03T01:58:09.630Z,1.23
2019-01-03T02:01:01.770Z,2.27
2019-01-03T02:03:54.921Z,1.80
2019-01-03T02:06:56.230Z,1.60
2019-01-03T02:09:43.917Z,1.67
2019-01-03T02:12:51.729Z,1.87
2019-01-03T02:15:40.222Z,1.57
2019-01-03T02:18:38.153Z,1.57
2019-01-03T02:21:39.077Z,1.70
2019-01-03T02:24:28.229Z,1.43
2019-01-03T02:27:23.444Z,1.63
2019-01-03T02:30:21.270Z,1.47
2019-01-03T02:33:22.803Z,1.57
2019-01-03T02:36:09.370Z,1.07
2019-01-03T02:38:57.364Z,1.93
2019-01-03T02:41:52.825Z,1.43
2019-01-03T02:44:43.416Z,1.30
2019-01-03T02:47:35.274Z,1.20
2019-01-03T02:50:21.464Z,1.50
2019-01-03T02:53:20.386Z,1.32
2019-01-03T02:56:14.534Z,1.40
2019-01-03T02:59:18.958Z,1.20
2019-01-03T03:02:14.251Z,0.95
2019-01-03T03:05:02.174Z,1.60
2019-01-03T03:08:00.609Z,1.43
2019-01-03T03:11:07.853Z,1.20
2019-01-03T03:14:15.637Z,1.40
2019-01-03T03:17:07.254Z,1.50
2019-01-03T03:20:05.304Z,1.37
2019-01-03T03:22:43.514Z,1.70
2019-01-03T03:25:32.749Z,1.83
2019-01-03T03:28:40.047Z,1.70
2019-01-03T03:31:38.119Z,1.60
2019-01-03T03:34:36.443Z,1.40
2019-01-03T03:37:25.635Z,1.37
2019-01-03T03:40:14.799Z,1.60
2019-01-03T03:43:04.438Z,1.23
2019-01-03T03:45:53.580Z,1.30
2019-01-03T03:48:35.054Z,1.60
2019-01-03T03:51:24.671Z,1.63
2019-01-03T03:54:23.040Z,2.03
2019-01-03T03:57:15.206Z,1.60
2019-01-03T04:00:04.431Z,1.73
2019-01-03T04:02:52.423Z,1.60
2019-01-03T04:05:37.181Z,1.67
2019-01-03T04:08:25.328Z,2.20
2019-01-03T04:11:17.249Z,1.40
2019-01-03T04:14:00.959Z,1.53
2019-01-03T04:16:59.680Z,2.35
2019-01-03T04:19:47.658Z,1.62
2019-01-03T04:22:39.770Z,1.60
2019-01-03T04:25:27.795Z,1.60
2019-01-03T04:28:35.670Z,1.60
2019-01-03T04:31:31.413Z,1.50
2019-01-03T04:34:29.996Z,2.00
2019-01-03T04:37:22.321Z,1.70
2019-01-03T04:40:23.804Z,1.87
2019-01-03T04:43:13.255Z,1.82
2019-01-03T04:46:08.808Z,2.10
2019-01-03T04:48:53.689Z,1.70
2019-01-03T04:51:49.401Z,2.12
2019-01-03T04:54:44.496Z,2.10
2019-01-03T04:57:31.279Z,1.90
2019-01-03T05:00:29.363Z,1.63
2019-01-03T05:03:17.840Z,1.47
2019-01-03T05:06:07.141Z,1.60
2019-01-03T05:08:54.742Z,1.80
2019-01-03T05:11:44.255Z,2.12
2019-01-03T05:14:33.714Z,1.90
2019-01-03T05:17:21.834Z,2.02
2019-01-03T05:20:14.448Z,1.40
2019-01-03T05:23:18.977Z,1.67
2019-01-03T05:26:01.050Z,1.60
2019-01-03T05:28:59.664Z,1.40
2019-01-03T05:31:53.096Z,1.73
2019-01-03T05:34:41.180Z,1.90
2019-01-03T05:37:33.111Z,2.20
2019-01-03T05:40:21.033Z,2.27
2019-01-03T05:43:08.870Z,1.60
2019-01-03T05:46:00.955Z,1.67
2019-01-03T05:48:49.125Z,1.70
2019-01-03T05:51:50.695Z,1.87
2019-01-03T05:54:38.693Z,1.35
2019-01-03T05:57:46.321Z,1.80
2019-01-03T06:00:34.541Z,1.20
2019-01-03T06:03:23.658Z,2.03
2019-01-03T06:06:23.340Z,2.00
2019-01-03T06:09:12.525Z,1.87
2019-01-03T06:12:00.732Z,2.03
2019-01-03T06:14:59.299Z,1.92
2019-01-03T06:17:52.541Z,2.00
2019-01-03T06:20:59.904Z,1.63
2019-01-03T06:23:48.110Z,1.47
2019-01-03T06:26:35.831Z,1.50
2019-01-03T06:29:24.127Z,2.10
2019-01-03T06:32:14.572Z,2.40
2019-01-03T06:35:09.670Z,2.53
2019-01-03T06:38:13.748Z,2.60
2019-01-03T06:41:21.464Z,2.70
2019-01-03T06:44:10.606Z,2.00
2019-01-03T06:46:59.263Z,1.80
2019-01-03T06:49:57.435Z,1.90
2019-01-03T06:52:58.627Z,1.93
2019-01-03T06:55:59.774Z,1.93
2019-01-03T06:58:47.854Z,2.43
2019-01-03T07:01:52.189Z,2.13
2019-01-03T07:04:47.097Z,2.67
2019-01-03T07:07:41.812Z,1.95
2019-01-03T07:10:29.948Z,2.50
2019-01-03T07:13:18.042Z,2.50
2019-01-03T07:16:06.385Z,2.70
2019-01-03T07:19:01.417Z,2.70
2019-01-03T07:21:49.574Z,2.07
2019-01-03T07:24:53.935Z,2.17
2019-01-03T07:27:58.509Z,2.52
2019-01-03T07:30:50.372Z,2.60
2019-01-03T07:33:38.327Z,3.17
2019-01-03T07:36:28.822Z,2.90
2019-01-03T07:39:18.396Z,3.03
2019-01-03T07:42:20.143Z,3.07
2019-01-03T07:45:08.527Z,3.10
2019-01-03T07:48:06.461Z,3.23
2019-01-03T07:51:01.360Z,3.20
2019-01-03T07:53:49.523Z,3.40
2019-01-03T07:56:47.763Z,3.17
2019-01-03T07:59:37.175Z,3.92
2019-01-03T08:02:27.765Z,3.30
2019-01-03T08:05:29.010Z,3.47
2019-01-03T08:08:17.706Z,3.30
2019-01-03T08:11:05.996Z,3.12
2019-01-03T08:13:51.961Z,2.80
2019-01-03T08:16:41.514Z,3.33
2019-01-03T08:19:29.309Z,4.80
2019-01-03T08:22:16.936Z,6.70
2019-01-03T08:25:01.727Z,5.37
2019-01-03T08:27:49.810Z,5.28
2019-01-03T08:30:48.444Z,5.07
2019-01-03T08:33:49.704Z,4.27
2019-01-03T08:36:38.180Z,5.70
2019-01-03T08:39:43.199Z,6.93
2019-01-03T08:42:38.511Z,4.50
2019-01-03T08:45:42.864Z,4.27
2019-01-03T08:48:27.720Z,4.55
2019-01-03T08:51:31.977Z,4.17
2019-01-03T08:54:20.353Z,5.17
2019-01-03T08:57:09.538Z,6.03
2019-01-03T09:00:01.753Z,8.13
2019-01-03T09:02:56.951Z,6.55
2019-01-03T09:05:49.435Z,7.47
2019-01-03T09:08:38.579Z,9.27
2019-01-03T09:11:37.209Z,9.70
2019-01-03T09:14:32.284Z,6.80
2019-01-03T09:17:26.533Z,6.17
2019-01-03T09:20:24.718Z,6.70
2019-01-03T09:23:13.023Z,8.50
2019-01-03T09:26:20.978Z,8.53
2019-01-03T09:29:16.197Z,5.70
2019-01-03T09:32:20.553Z,6.07
2019-01-03T09:35:15.812Z,6.80
2019-01-03T09:38:05.228Z,5.33
2019-01-03T09:41:03.629Z,6.20
2019-01-03T09:43:59.519Z,5.58
2019-01-03T09:46:30.024Z,6.40
2019-01-03T09:49:00.786Z,5.63
2019-01-03T09:51:31.523Z,5.57
2019-01-03T09:54:02.213Z,4.60
2019-01-03T09:56:32.744Z,4.50
2019-01-03T09:59:03.898Z,4.50
2019-01-03T10:01:34.621Z,4.43
2019-01-03T10:04:05.005Z,4.83
2019-01-03T10:06:35.540Z,5.37
2019-01-03T10:09:08.007Z,4.63
2019-01-03T10:11:38.716Z,4.72
2019-01-03T10:14:10.095Z,5.05
2019-01-03T10:16:40.949Z,5.17
2019-01-03T10:19:11.407Z,4.43
2019-01-03T10:21:41.779Z,5.03
2019-01-03T10:24:12.496Z,5.65
2019-01-03T10:26:42.824Z,6.97
2019-01-03T10:29:13.447Z,5.45
2019-01-03T10:31:43.879Z,5.10
2019-01-03T10:34:14.504Z,5.10
2019-01-03T10:36:45.001Z,5.43
2019-01-03T10:39:16.978Z,5.40
2019-01-03T10:41:47.627Z,5.33
2019-01-03T10:44:18.294Z,5.80
2019-01-03T10:46:48.788Z,5.60
2019-01-03T10:49:19.449Z,6.00
2019-01-03T10:51:49.830Z,6.83
2019-01-03T10:54:20.892Z,5.33
2019-01-03T10:56:51.541Z,5.47
2019-01-03T10:59:22.825Z,8.58
2019-01-03T11:01:53.573Z,6.00
2019-01-03T11:04:25.794Z,6.23
2019-01-03T11:06:56.718Z,7.03
2019-01-03T11:09:27.133Z,6.43
2019-01-03T11:11:57.745Z,6.30
2019-01-03T11:14:28.598Z,6.35
2019-01-03T11:16:58.977Z,6.03
2019-01-03T11:19:30.884Z,6.05
2019-01-03T11:22:01.656Z,5.90
2019-01-03T11:24:32.049Z,5.53
2019-01-03T11:27:02.546Z,5.50
2019-01-03T11:29:32.996Z,5.73
2019-01-03T11:32:03.643Z,5.95
2019-01-03T11:34:34.354Z,6.60
2019-01-03T11:37:05.092Z,6.40
2019-01-03T11:39:36.906Z,6.37
2019-01-03T11:42:07.521Z,5.87
2019-01-03T11:44:38.088Z,7.03
2019-01-03T11:47:08.517Z,5.80
2019-01-03T11:49:38.909Z,5.57
2019-01-03T11:52:10.699Z,5.70
2019-01-03T11:54:41.512Z,5.40
2019-01-03T11:57:11.857Z,5.73
2019-01-03T11:59:44.099Z,6.55
2019-01-03T12:02:14.504Z,7.80
2019-01-03T12:04:44.874Z,6.60
2019-01-03T12:07:15.677Z,6.50
2019-01-03T12:09:46.063Z,5.00
2019-01-03T12:12:16.728Z,5.97
2019-01-03T12:14:47.551Z,6.22
2019-01-03T12:17:18.116Z,10.17
2019-01-03T12:19:49.823Z,7.08
2019-01-03T12:22:20.341Z,14.57
2019-01-03T12:24:50.684Z,11.97
2019-01-03T12:27:21.341Z,11.80
2019-01-03T12:29:51.857Z,8.93
2019-01-03T12:32:22.509Z,10.40
2019-01-03T12:34:52.853Z,9.93
2019-01-03T12:37:23.579Z,8.75
2019-01-03T12:39:53.914Z,6.87
2019-01-03T12:42:24.545Z,6.70
2019-01-03T12:44:55.049Z,7.00
2019-01-03T12:47:25.743Z,7.50
2019-01-03T12:49:56.385Z,7.15
2019-01-03T12:52:26.900Z,6.97
2019-01-03T12:54:57.525Z,7.53
2019-01-03T12:57:27.871Z,9.00
2019-01-03T12:59:58.653Z,6.50
2019-01-03T13:02:29.298Z,4.78
2019-01-03T13:04:59.647Z,4.90
2019-01-03T13:07:30.202Z,9.33
2019-01-03T13:10:00.558Z,8.87
2019-01-03T13:12:30.889Z,7.93
2019-01-03T13:15:01.650Z,7.90
2019-01-03T13:17:33.379Z,5.10
2019-01-03T13:20:03.784Z,7.60
2019-01-03T13:22:34.590Z,6.40
2019-01-03T13:25:05.040Z,6.10
2019-01-03T13:27:35.715Z,5.83
2019-01-03T13:30:07.526Z,5.28
2019-01-03T13:32:37.867Z,5.00
2019-01-03T13:35:08.509Z,6.77
2019-01-03T13:37:39.912Z,4.55
2019-01-03T13:40:10.658Z,6.17
2019-01-03T13:42:40.976Z,4.60
2019-01-03T13:45:11.675Z,4.93
2019-01-03T13:47:42.002Z,5.27
2019-01-03T13:50:12.644Z,4.70
2019-01-03T13:52:43.396Z,5.58
2019-01-03T13:55:13.939Z,6.57
2019-01-03T13:57:44.533Z,6.23
2019-01-03T14:00:14.998Z,8.53
2019-01-03T14:02:45.518Z,7.20
2019-01-03T14:05:15.959Z,7.90
2019-01-03T14:07:46.699Z,7.12
2019-01-03T14:10:17.362Z,9.93
2019-01-03T14:12:47.757Z,9.30
2019-01-03T14:15:18.585Z,10.65
2019-01-03T14:17:48.928Z,10.33
2019-01-03T14:20:19.525Z,8.13
2019-01-03T14:22:50.013Z,8.73
2019-01-03T14:25:20.527Z,13.10
2019-01-03T14:27:50.903Z,7.95
2019-01-03T14:30:21.757Z,5.07
2019-01-03T14:32:52.904Z,7.20
2019-01-03T14:35:23.574Z,5.97
2019-01-03T14:37:54.043Z,7.07
2019-01-03T14:40:24.589Z,5.93
2019-01-03T14:42:54.943Z,7.07
2019-01-03T14:45:25.847Z,5.60
2019-01-03T14:47:56.995Z,6.20
2019-01-03T14:50:27.692Z,6.73
2019-01-03T14:52:58.434Z,5.45
2019-01-03T14:55:29.158Z,7.73
2019-01-03T14:57:59.656Z,5.73
2019-01-03T15:00:30.182Z,11.70
2019-01-03T15:03:00.552Z,6.60
2019-01-03T15:05:30.906Z,8.00
2019-01-03T15:08:02.140Z,7.43
2019-01-03T15:10:34.101Z,6.55
2019-01-03T15:13:04.582Z,7.77
2019-01-03T15:15:35.050Z,6.10
2019-01-03T15:18:05.610Z,8.50
2019-01-03T15:20:35.975Z,7.53
2019-01-03T15:23:06.736Z,6.60
2019-01-03T15:25:37.546Z,8.30
2019-01-03T15:28:07.938Z,8.40
2019-01-03T15:30:38.945Z,8.53
2019-01-03T15:33:09.998Z,6.50
2019-01-03T15:35:41.245Z,7.47
2019-01-03T15:38:11.692Z,11.57
2019-01-03T15:40:42.605Z,35.10
2019-01-03T15:43:12.942Z,8.50
2019-01-03T15:45:43.855Z,7.40
2019-01-03T15:48:14.507Z,9.00
2019-01-03T15:50:46.020Z,7.47
2019-01-03T15:53:18.580Z,7.87
2019-01-03T15:55:50.393Z,9.07
2019-01-03T15:58:20.783Z,6.83
2019-01-03T16:00:51.599Z,6.92
2019-01-03T16:03:23.914Z,7.80
2019-01-03T16:05:54.441Z,7.63
2019-01-03T16:08:25.021Z,7.63
2019-01-03T16:10:55.675Z,8.40
2019-01-03T16:13:26.044Z,8.20
2019-01-03T16:15:56.682Z,8.77
2019-01-03T16:18:27.368Z,7.40
2019-01-03T16:20:58.242Z,7.20
2019-01-03T16:23:28.985Z,6.97
2019-01-03T16:25:59.642Z,7.20
2019-01-03T16:28:30.363Z,7.10
2019-01-03T16:31:00.821Z,5.90
2019-01-03T16:33:32.330Z,5.43
2019-01-03T16:36:02.717Z,6.43
2019-01-03T16:38:33.498Z,7.80
2019-01-03T16:41:03.944Z,7.83
2019-01-03T16:43:36.922Z,6.35
2019-01-03T16:46:08.143Z,6.37
2019-01-03T16:48:38.780Z,7.47
2019-01-03T16:51:09.449Z,6.67
2019-01-03T16:53:39.991Z,7.13
2019-01-03T16:56:10.508Z,7.20
2019-01-03T16:58:41.203Z,6.37
2019-01-03T17:01:12.325Z,6.40
2019-01-03T17:03:42.891Z,6.80
2019-01-03T17:06:13.766Z,6.00
2019-01-03T17:08:44.617Z,7.10
2019-01-03T17:11:14.979Z,6.03
2019-01-03T17:13:45.666Z,6.10
2019-01-03T17:16:17.032Z,5.58
2019-01-03T17:18:49.021Z,6.23
2019-01-03T17:21:19.584Z,6.70
2019-01-03T17:23:50.190Z,5.43
2019-01-03T17:26:20.812Z,5.97
2019-01-03T17:28:51.467Z,5.30
2019-01-03T17:31:21.986Z,5.50
2019-01-03T17:33:52.552Z,5.90
2019-01-03T17:36:23.909Z,5.08
2019-01-03T17:38:54.638Z,6.03
2019-01-03T17:41:26.114Z,5.90
2019-01-03T17:43:56.628Z,6.20
2019-01-03T17:46:28.527Z,5.67
2019-01-03T17:48:58.875Z,6.20
2019-01-03T17:51:29.638Z,6.50
2019-01-03T17:54:01.278Z,5.57
2019-01-03T17:56:31.824Z,6.20
2019-01-03T17:59:02.486Z,5.47
2019-01-03T18:01:33.063Z,5.70
2019-01-03T18:04:04.256Z,6.03
2019-01-03T18:06:34.763Z,5.23
2019-01-03T18:09:06.133Z,6.72
2019-01-03T18:11:36.802Z,6.83
2019-01-03T18:14:07.479Z,6.67
2019-01-03T18:16:38.967Z,6.20
2019-01-03T18:19:09.573Z,6.23
2019-01-03T18:21:39.931Z,6.13
2019-01-03T18:24:10.584Z,5.67
2019-01-03T18:26:40.958Z,5.50
2019-01-03T18:29:11.606Z,5.90
2019-01-03T18:31:42.313Z,5.03
2019-01-03T18:34:12.839Z,5.77
2019-01-03T18:36:43.466Z,5.87
2019-01-03T18:39:13.970Z,6.13
2019-01-03T18:41:44.544Z,6.93
2019-01-03T18:44:14.933Z,7.83
2019-01-03T18:46:45.697Z,7.62
2019-01-03T18:49:16.372Z,8.60
2019-01-03T18:51:46.870Z,8.20
2019-01-03T18:54:18.055Z,7.40
2019-01-03T18:56:48.578Z,7.20
2019-01-03T18:59:18.956Z,8.10
2019-01-03T19:01:49.623Z,7.37
2019-01-03T19:04:19.996Z,6.90
2019-01-03T19:06:50.637Z,7.72
2019-01-03T19:09:21.163Z,9.20
2019-01-03T19:11:52.039Z,7.63
2019-01-03T19:14:22.752Z,7.20
2019-01-03T19:16:53.517Z,7.15
2019-01-03T19:19:23.877Z,7.67
2019-01-03T19:21:54.501Z,7.47
2019-01-03T19:24:24.992Z,9.53
2019-01-03T19:26:55.806Z,8.63
2019-01-03T19:29:26.793Z,8.50
2019-01-03T19:31:57.568Z,8.27
2019-01-03T19:34:28.074Z,9.17
2019-01-03T19:36:59.256Z,9.87
2019-01-03T19:39:30.355Z,10.37
2019-01-03T19:42:00.819Z,10.67
2019-01-03T19:44:31.473Z,10.25
2019-01-03T19:47:03.256Z,10.13
2019-01-03T19:49:34.111Z,11.28
2019-01-03T19:52:07.137Z,10.07
2019-01-03T19:54:38.017Z,9.23
2019-01-03T19:57:08.687Z,9.77
2019-01-03T19:59:40.436Z,14.25
2019-01-03T20:02:11.056Z,11.13
2019-01-03T20:04:41.570Z,31.30
2019-01-03T20:07:11.991Z,24.03
2019-01-03T20:09:42.635Z,10.43
2019-01-03T20:12:13.418Z,8.70
2019-01-03T20:14:43.786Z,8.83
2019-01-03T20:17:14.703Z,9.83
2019-01-03T20:19:46.474Z,11.30
2019-01-03T20:22:16.867Z,8.73
2019-01-03T20:24:47.625Z,8.40
2019-01-03T20:27:18.052Z,8.83
2019-01-03T20:29:48.715Z,7.87
2019-01-03T20:32:19.630Z,9.53
2019-01-03T20:34:50.356Z,8.48
2019-01-03T20:37:21.069Z,10.53
2019-01-03T20:39:51.535Z,10.00
2019-01-03T20:42:21.993Z,9.77
2019-01-03T20:44:52.620Z,8.63
2019-01-03T20:47:23.007Z,10.10
2019-01-03T20:49:53.750Z,8.70
2019-01-03T20:52:24.549Z,8.78
2019-01-03T20:54:54.968Z,8.90
2019-01-03T20:57:25.852Z,8.20
2019-01-03T20:59:56.756Z,8.87
2019-01-03T21:02:27.454Z,8.85
2019-01-03T21:04:57.900Z,9.57
2019-01-03T21:07:28.864Z,8.18
2019-01-03T21:09:59.674Z,8.35
2019-01-03T21:12:30.606Z,8.45
2019-01-03T21:15:01.198Z,8.10
2019-01-03T21:17:31.826Z,9.10
2019-01-03T21:20:02.517Z,9.57
2019-01-03T21:22:33.120Z,9.70
2019-01-03T21:25:03.595Z,9.73
2019-01-03T21:27:34.106Z,9.50
2019-01-03T21:30:05.849Z,11.28
2019-01-03T21:32:36.497Z,9.95
2019-01-03T21:35:06.915Z,10.00
2019-01-03T21:37:37.641Z,11.37
2019-01-03T21:40:09.759Z,13.43
2019-01-03T21:42:40.445Z,10.23
2019-01-03T21:45:10.877Z,9.30
2019-01-03T21:47:41.526Z,9.35
2019-01-03T21:50:13.158Z,25.83
2019-01-03T21:52:44.213Z,12.97
2019-01-03T21:55:14.865Z,10.03
2019-01-03T21:57:45.524Z,8.27
2019-01-03T22:00:17.169Z,9.80
2019-01-03T22:02:49.632Z,10.43
2019-01-03T22:05:20.008Z,10.03
2019-01-03T22:07:50.798Z,9.40
2019-01-03T22:10:21.485Z,8.90
2019-01-03T22:12:52.078Z,9.70
2019-01-03T22:15:22.839Z,8.55
2019-01-03T22:17:53.616Z,9.67
2019-01-03T22:20:24.143Z,9.03
2019-01-03T22:22:55.916Z,9.23
2019-01-03T22:25:26.521Z,9.40
2019-01-03T22:27:56.869Z,9.43
2019-01-03T22:30:27.706Z,8.93
2019-01-03T22:32:58.406Z,8.95
2019-01-03T22:35:28.783Z,8.47
2019-01-03T22:37:59.644Z,10.03
2019-01-03T22:40:30.024Z,9.53
2019-01-03T22:43:01.877Z,9.48
2019-01-03T22:45:32.646Z,8.83
2019-01-03T22:48:03.051Z,8.90
2019-01-03T22:50:33.501Z,8.17
2019-01-03T22:53:04.170Z,9.00
2019-01-03T22:55:34.810Z,8.67
2019-01-03T22:58:05.465Z,9.33
2019-01-03T23:00:43.104Z,9.60
2019-01-03T23:03:13.828Z,9.60
2019-01-03T23:05:44.480Z,9.17
2019-01-03T23:08:14.964Z,9.60
2019-01-03T23:10:45.506Z,9.97
2019-01-03T23:13:15.860Z,10.00
2019-01-03T23:15:46.707Z,9.85
2019-01-03T23:18:17.408Z,8.95
2019-01-03T23:20:48.070Z,9.25
2019-01-03T23:23:18.826Z,9.68
2019-01-03T23:25:49.478Z,9.05
2019-01-03T23:28:19.867Z,9.13
2019-01-03T23:30:50.580Z,8.53
2019-01-03T23:33:21.312Z,9.90
2019-01-03T23:35:51.658Z,10.67
2019-01-03T23:38:22.986Z,9.20
2019-01-03T23:40:53.629Z,9.83
2019-01-03T23:43:23.984Z,9.67
2019-01-03T23:45:54.745Z,9.78
2019-01-03T23:48:25.840Z,9.38
2019-01-03T23:50:56.524Z,9.13
2019-01-03T23:53:27.053Z,10.17
2019-01-03T23:55:59.467Z,8.90
2019-01-03T23:58:29.895Z,8.37
